sensor_id;sensor_type;location;lat;lon;timestamp;pressure;altitude;pressure_sealevel;temperature;humidity
74242;BME280;62599;49.146;10.426;2023-08-31T00:00:22;95160.69;;;12.46;100.00
74242;BME280;62599;49.146;10.426;2023-08-31T00:02:47;95151.38;;;12.43;100.00
74242;BME280;62599;49.146;10.426;2023-08-31T00:05:13;95159.47;;;12.43;100.00
74242;BME280;62599;49.146;10.426;2023-08-31T00:07:38;95157.56;;;12.44;100.00
74242;BME280;62599;49.146;10.426;2023-08-31T00:10:04;95165.25;;;12.42;100.00
74242;BME280;62599;49.146;10.426;2023-08-31T00:12:35;95166.38;;;12.41;100.00
74242;BME280;62599;49.146;10.426;2023-08-31T00:15:01;95169.84;;;12.41;100.00
74242;BME280;62599;49.146;10.426;2023-08-31T00:17:29;95178.38;;;12.43;100.00
74242;BME280;62599;49.146;10.426;2023-08-31T00:19:55;95180.72;;;12.45;100.00
74242;BME280;62599;49.146;10.426;2023-08-31T00:22:21;95167.66;;;12.47;100.00
74242;BME280;62599;49.146;10.426;2023-08-31T00:24:46;95168.94;;;12.53;100.00
74242;BME280;62599;49.146;10.426;2023-08-31T00:27:12;95171.63;;;12.53;100.00
74242;BME280;62599;49.146;10.426;2023-08-31T00:29:40;95169.28;;;12.51;100.00
74242;BME280;62599;49.146;10.426;2023-08-31T00:32:05;95177.13;;;12.57;100.00
74242;BME280;62599;49.146;10.426;2023-08-31T00:34:31;95178.66;;;12.58;100.00
74242;BME280;62599;49.146;10.426;2023-08-31T00:36:57;95188.25;;;12.55;100.00
74242;BME280;62599;49.146;10.426;2023-08-31T00:39:22;95184.78;;;12.55;100.00
74242;BME280;62599;49.146;10.426;2023-08-31T00:41:48;95183.28;;;12.57;100.00
74242;BME280;62599;49.146;10.426;2023-08-31T00:44:15;95182.84;;;12.55;100.00
74242;BME280;62599;49.146;10.426;2023-08-31T00:46:43;95181.72;;;12.56;100.00
74242;BME280;62599;49.146;10.426;2023-08-31T00:49:09;95198.34;;;12.58;100.00
74242;BME280;62599;49.146;10.426;2023-08-31T00:51:37;95197.22;;;12.59;100.00
74242;BME280;62599;49.146;10.426;2023-08-31T00:54:04;95192.19;;;12.58;100.00
74242;BME280;62599;49.146;10.426;2023-08-31T00:56:31;95200.22;;;12.54;100.00
74242;BME280;62599;49.146;10.426;2023-08-31T00:58:58;95201.34;;;12.53;100.00
74242;BME280;62599;49.146;10.426;2023-08-31T01:09:57;95192.97;;;12.39;100.00
74242;BME280;62599;49.146;10.426;2023-08-31T01:12:58;95190.19;;;12.35;100.00
74242;BME280;62599;49.146;10.426;2023-08-31T01:15:32;95192.97;;;12.39;100.00
74242;BME280;62599;49.146;10.426;2023-08-31T01:18:09;95189.19;;;12.43;100.00
74242;BME280;62599;49.146;10.426;2023-08-31T01:26:19;95172.84;;;12.36;100.00
74242;BME280;62599;49.146;10.426;2023-08-31T01:28:49;95178.03;;;12.25;100.00
74242;BME280;62599;49.146;10.426;2023-08-31T01:31:15;95186.91;;;12.26;100.00
74242;BME280;62599;49.146;10.426;2023-08-31T01:33:42;95198.22;;;12.32;100.00
74242;BME280;62599;49.146;10.426;2023-08-31T01:39:03;95204.03;;;12.34;100.00
74242;BME280;62599;49.146;10.426;2023-08-31T01:41:34;95209.03;;;12.32;100.00
74242;BME280;62599;49.146;10.426;2023-08-31T01:44:01;95217.81;;;12.28;100.00
74242;BME280;62599;49.146;10.426;2023-08-31T01:46:27;95224.38;;;12.27;100.00
74242;BME280;62599;49.146;10.426;2023-08-31T01:48:53;95213.81;;;12.22;100.00
74242;BME280;62599;49.146;10.426;2023-08-31T01:51:18;95215.16;;;12.13;100.00
74242;BME280;62599;49.146;10.426;2023-08-31T01:53:44;95220.59;;;11.97;100.00
74242;BME280;62599;49.146;10.426;2023-08-31T01:56:09;95224.69;;;11.91;100.00
74242;BME280;62599;49.146;10.426;2023-08-31T01:58:35;95220.34;;;11.86;100.00
74242;BME280;62599;49.146;10.426;2023-08-31T02:01:00;95221.03;;;11.83;100.00
74242;BME280;62599;49.146;10.426;2023-08-31T02:03:26;95226.25;;;11.76;100.00
74242;BME280;62599;49.146;10.426;2023-08-31T02:05:51;95213.47;;;11.73;100.00
74242;BME280;62599;49.146;10.426;2023-08-31T02:08:17;95206.00;;;11.66;100.00
74242;BME280;62599;49.146;10.426;2023-08-31T02:10:43;95203.38;;;11.70;100.00
74242;BME280;62599;49.146;10.426;2023-08-31T02:13:09;95206.25;;;11.61;100.00
74242;BME280;62599;49.146;10.426;2023-08-31T02:15:38;95212.69;;;11.56;100.00
74242;BME280;62599;49.146;10.426;2023-08-31T02:18:03;95211.75;;;11.49;100.00
74242;BME280;62599;49.146;10.426;2023-08-31T02:20:29;95218.44;;;11.39;100.00
74242;BME280;62599;49.146;10.426;2023-08-31T02:22:55;95213.22;;;11.30;100.00
74242;BME280;62599;49.146;10.426;2023-08-31T02:25:21;95225.66;;;11.19;100.00
74242;BME280;62599;49.146;10.426;2023-08-31T02:27:47;95222.31;;;11.10;100.00
74242;BME280;62599;49.146;10.426;2023-08-31T02:30:12;95225.97;;;11.02;100.00
74242;BME280;62599;49.146;10.426;2023-08-31T02:32:37;95225.00;;;10.94;100.00
74242;BME280;62599;49.146;10.426;2023-08-31T02:35:04;95234.13;;;10.90;100.00
74242;BME280;62599;49.146;10.426;2023-08-31T02:37:29;95230.44;;;10.82;100.00
74242;BME280;62599;49.146;10.426;2023-08-31T02:39:55;95227.47;;;10.71;100.00
74242;BME280;62599;49.146;10.426;2023-08-31T02:42:20;95239.81;;;10.72;100.00
74242;BME280;62599;49.146;10.426;2023-08-31T02:44:45;95226.16;;;10.65;100.00
74242;BME280;62599;49.146;10.426;2023-08-31T02:47:11;95228.84;;;10.65;100.00
74242;BME280;62599;49.146;10.426;2023-08-31T02:49:36;95246.28;;;10.83;100.00
74242;BME280;62599;49.146;10.426;2023-08-31T02:52:02;95254.19;;;10.92;100.00
74242;BME280;62599;49.146;10.426;2023-08-31T02:54:28;95248.66;;;11.01;100.00
74242;BME280;62599;49.146;10.426;2023-08-31T02:56:54;95239.00;;;11.00;100.00
74242;BME280;62599;49.146;10.426;2023-08-31T02:59:20;95231.38;;;11.02;100.00
74242;BME280;62599;49.146;10.426;2023-08-31T03:01:48;95230.59;;;11.01;100.00
74242;BME280;62599;49.146;10.426;2023-08-31T03:04:13;95236.56;;;10.95;100.00
74242;BME280;62599;49.146;10.426;2023-08-31T03:06:39;95241.50;;;10.93;100.00
74242;BME280;62599;49.146;10.426;2023-08-31T03:09:05;95251.38;;;11.01;100.00
74242;BME280;62599;49.146;10.426;2023-08-31T03:11:30;95241.00;;;11.03;100.00
74242;BME280;62599;49.146;10.426;2023-08-31T03:13:56;95253.47;;;11.07;100.00
74242;BME280;62599;49.146;10.426;2023-08-31T03:16:21;95245.72;;;11.06;100.00
74242;BME280;62599;49.146;10.426;2023-08-31T03:18:47;95243.47;;;11.08;100.00
74242;BME280;62599;49.146;10.426;2023-08-31T03:21:12;95249.19;;;11.06;100.00
74242;BME280;62599;49.146;10.426;2023-08-31T03:23:38;95256.06;;;11.04;100.00
74242;BME280;62599;49.146;10.426;2023-08-31T03:26:10;95247.53;;;11.02;100.00
74242;BME280;62599;49.146;10.426;2023-08-31T03:28:35;95251.59;;;10.96;100.00
74242;BME280;62599;49.146;10.426;2023-08-31T03:31:01;95254.09;;;10.89;100.00
74242;BME280;62599;49.146;10.426;2023-08-31T03:33:27;95268.97;;;10.82;100.00
74242;BME280;62599;49.146;10.426;2023-08-31T03:35:54;95263.03;;;10.77;100.00
74242;BME280;62599;49.146;10.426;2023-08-31T03:38:19;95267.97;;;10.75;100.00
74242;BME280;62599;49.146;10.426;2023-08-31T03:40:54;95265.09;;;10.68;100.00
74242;BME280;62599;49.146;10.426;2023-08-31T03:43:20;95252.88;;;10.58;100.00
74242;BME280;62599;49.146;10.426;2023-08-31T03:45:46;95272.63;;;10.62;100.00
74242;BME280;62599;49.146;10.426;2023-08-31T03:48:11;95270.94;;;10.57;100.00
74242;BME280;62599;49.146;10.426;2023-08-31T03:50:37;95274.66;;;10.53;100.00
74242;BME280;62599;49.146;10.426;2023-08-31T03:53:02;95278.03;;;10.50;100.00
74242;BME280;62599;49.146;10.426;2023-08-31T03:55:28;95280.97;;;10.45;100.00
74242;BME280;62599;49.146;10.426;2023-08-31T03:57:54;95279.75;;;10.42;100.00
74242;BME280;62599;49.146;10.426;2023-08-31T04:00:20;95280.94;;;10.57;100.00
74242;BME280;62599;49.146;10.426;2023-08-31T04:02:45;95288.09;;;10.65;100.00
74242;BME280;62599;49.146;10.426;2023-08-31T04:05:11;95291.78;;;10.73;100.00
74242;BME280;62599;49.146;10.426;2023-08-31T04:07:39;95295.56;;;10.84;100.00
74242;BME280;62599;49.146;10.426;2023-08-31T04:10:05;95301.25;;;10.95;100.00
74242;BME280;62599;49.146;10.426;2023-08-31T04:12:30;95303.00;;;11.03;100.00
74242;BME280;62599;49.146;10.426;2023-08-31T04:14:56;95298.75;;;11.02;100.00
74242;BME280;62599;49.146;10.426;2023-08-31T04:17:21;95297.50;;;10.99;100.00
74242;BME280;62599;49.146;10.426;2023-08-31T04:19:47;95294.72;;;10.96;100.00
74242;BME280;62599;49.146;10.426;2023-08-31T04:22:12;95305.25;;;11.01;100.00
74242;BME280;62599;49.146;10.426;2023-08-31T04:24:38;95309.25;;;11.07;100.00
74242;BME280;62599;49.146;10.426;2023-08-31T04:27:03;95310.59;;;11.13;100.00
74242;BME280;62599;49.146;10.426;2023-08-31T04:29:29;95315.56;;;11.11;100.00
74242;BME280;62599;49.146;10.426;2023-08-31T04:31:55;95321.63;;;11.08;100.00
74242;BME280;62599;49.146;10.426;2023-08-31T04:34:20;95323.44;;;11.04;100.00
74242;BME280;62599;49.146;10.426;2023-08-31T04:36:46;95325.22;;;11.00;100.00
74242;BME280;62599;49.146;10.426;2023-08-31T04:39:13;95333.66;;;10.98;100.00
74242;BME280;62599;49.146;10.426;2023-08-31T04:41:39;95334.34;;;10.95;100.00
74242;BME280;62599;49.146;10.426;2023-08-31T04:44:04;95332.00;;;10.94;100.00
74242;BME280;62599;49.146;10.426;2023-08-31T04:46:30;95340.72;;;11.03;100.00
74242;BME280;62599;49.146;10.426;2023-08-31T04:48:55;95335.53;;;11.10;100.00
74242;BME280;62599;49.146;10.426;2023-08-31T04:51:32;95342.69;;;11.18;100.00
74242;BME280;62599;49.146;10.426;2023-08-31T04:53:58;95338.28;;;11.26;100.00
74242;BME280;62599;49.146;10.426;2023-08-31T04:56:23;95334.00;;;11.25;100.00
74242;BME280;62599;49.146;10.426;2023-08-31T04:58:49;95338.19;;;11.22;100.00
74242;BME280;62599;49.146;10.426;2023-08-31T05:01:15;95333.22;;;11.24;100.00
74242;BME280;62599;49.146;10.426;2023-08-31T05:03:41;95334.47;;;11.27;100.00
74242;BME280;62599;49.146;10.426;2023-08-31T05:06:07;95328.47;;;11.33;100.00
74242;BME280;62599;49.146;10.426;2023-08-31T05:08:33;95342.94;;;11.41;100.00
74242;BME280;62599;49.146;10.426;2023-08-31T05:10:59;95343.34;;;11.43;100.00
74242;BME280;62599;49.146;10.426;2023-08-31T05:13:25;95345.09;;;11.36;100.00
74242;BME280;62599;49.146;10.426;2023-08-31T05:15:50;95350.94;;;11.38;100.00
74242;BME280;62599;49.146;10.426;2023-08-31T05:18:16;95357.38;;;11.49;100.00
74242;BME280;62599;49.146;10.426;2023-08-31T05:20:45;95360.97;;;11.53;100.00
74242;BME280;62599;49.146;10.426;2023-08-31T05:23:11;95363.75;;;11.56;100.00
74242;BME280;62599;49.146;10.426;2023-08-31T05:25:42;95366.00;;;11.54;100.00
74242;BME280;62599;49.146;10.426;2023-08-31T05:28:07;95367.41;;;11.48;100.00
74242;BME280;62599;49.146;10.426;2023-08-31T05:30:32;95372.81;;;11.36;100.00
74242;BME280;62599;49.146;10.426;2023-08-31T05:33:00;95374.13;;;11.26;100.00
74242;BME280;62599;49.146;10.426;2023-08-31T05:35:25;95377.81;;;11.22;100.00
74242;BME280;62599;49.146;10.426;2023-08-31T05:37:51;95375.38;;;11.17;100.00
74242;BME280;62599;49.146;10.426;2023-08-31T05:40:16;95381.03;;;11.12;100.00
74242;BME280;62599;49.146;10.426;2023-08-31T05:42:42;95387.97;;;11.13;100.00
74242;BME280;62599;49.146;10.426;2023-08-31T05:45:10;95364.09;;;10.99;100.00
74242;BME280;62599;49.146;10.426;2023-08-31T05:47:36;95376.31;;;11.08;100.00
74242;BME280;62599;49.146;10.426;2023-08-31T05:50:03;95384.06;;;11.10;100.00
74242;BME280;62599;49.146;10.426;2023-08-31T05:52:29;95377.31;;;11.16;100.00
74242;BME280;62599;49.146;10.426;2023-08-31T05:54:55;95387.19;;;11.12;100.00
74242;BME280;62599;49.146;10.426;2023-08-31T05:57:25;95383.47;;;11.17;100.00
74242;BME280;62599;49.146;10.426;2023-08-31T05:59:53;95386.47;;;11.27;100.00
74242;BME280;62599;49.146;10.426;2023-08-31T06:02:18;95398.97;;;11.48;100.00
74242;BME280;62599;49.146;10.426;2023-08-31T06:04:43;95394.84;;;11.66;100.00
74242;BME280;62599;49.146;10.426;2023-08-31T06:07:09;95400.75;;;11.84;100.00
74242;BME280;62599;49.146;10.426;2023-08-31T06:09:34;95398.22;;;12.07;100.00
74242;BME280;62599;49.146;10.426;2023-08-31T06:12:00;95401.38;;;12.25;100.00
74242;BME280;62599;49.146;10.426;2023-08-31T06:14:25;95400.81;;;12.51;100.00
74242;BME280;62599;49.146;10.426;2023-08-31T06:16:51;95404.47;;;12.74;100.00
74242;BME280;62599;49.146;10.426;2023-08-31T06:19:17;95393.53;;;12.87;100.00
74242;BME280;62599;49.146;10.426;2023-08-31T06:21:43;95396.09;;;12.99;100.00
74242;BME280;62599;49.146;10.426;2023-08-31T06:24:08;95406.00;;;13.11;100.00
74242;BME280;62599;49.146;10.426;2023-08-31T06:26:38;95403.81;;;13.16;100.00
74242;BME280;62599;49.146;10.426;2023-08-31T06:29:03;95400.47;;;13.23;100.00
74242;BME280;62599;49.146;10.426;2023-08-31T06:31:29;95414.25;;;13.34;100.00
74242;BME280;62599;49.146;10.426;2023-08-31T06:33:54;95422.06;;;13.39;100.00
74242;BME280;62599;49.146;10.426;2023-08-31T06:36:20;95423.00;;;13.46;100.00
74242;BME280;62599;49.146;10.426;2023-08-31T06:38:45;95428.63;;;13.57;100.00
74242;BME280;62599;49.146;10.426;2023-08-31T06:41:11;95435.19;;;13.56;100.00
74242;BME280;62599;49.146;10.426;2023-08-31T06:43:36;95425.69;;;13.46;100.00
74242;BME280;62599;49.146;10.426;2023-08-31T06:46:02;95430.06;;;13.51;100.00
74242;BME280;62599;49.146;10.426;2023-08-31T06:48:27;95441.66;;;13.52;100.00
74242;BME280;62599;49.146;10.426;2023-08-31T06:50:52;95438.75;;;13.41;100.00
74242;BME280;62599;49.146;10.426;2023-08-31T06:53:18;95435.81;;;13.30;100.00
74242;BME280;62599;49.146;10.426;2023-08-31T06:55:43;95437.03;;;13.17;100.00
74242;BME280;62599;49.146;10.426;2023-08-31T06:58:09;95453.47;;;13.24;100.00
74242;BME280;62599;49.146;10.426;2023-08-31T07:00:35;95445.78;;;13.45;100.00
74242;BME280;62599;49.146;10.426;2023-08-31T07:03:00;95446.44;;;13.78;100.00
74242;BME280;62599;49.146;10.426;2023-08-31T07:05:26;95443.41;;;14.02;100.00
74242;BME280;62599;49.146;10.426;2023-08-31T07:07:55;95445.91;;;13.91;100.00
74242;BME280;62599;49.146;10.426;2023-08-31T07:10:21;95443.16;;;13.68;100.00
74242;BME280;62599;49.146;10.426;2023-08-31T07:12:47;95446.59;;;13.65;100.00
74242;BME280;62599;49.146;10.426;2023-08-31T07:15:13;95444.59;;;13.62;100.00
74242;BME280;62599;49.146;10.426;2023-08-31T07:17:38;95441.75;;;13.55;100.00
74242;BME280;62599;49.146;10.426;2023-08-31T07:20:04;95441.94;;;13.46;100.00
74242;BME280;62599;49.146;10.426;2023-08-31T07:22:32;95443.00;;;13.42;100.00
74242;BME280;62599;49.146;10.426;2023-08-31T07:24:58;95454.53;;;13.39;100.00
74242;BME280;62599;49.146;10.426;2023-08-31T07:27:23;95457.63;;;13.37;100.00
74242;BME280;62599;49.146;10.426;2023-08-31T07:29:48;95458.88;;;13.43;100.00
74242;BME280;62599;49.146;10.426;2023-08-31T07:32:14;95470.50;;;13.63;100.00
74242;BME280;62599;49.146;10.426;2023-08-31T07:34:39;95471.56;;;13.78;100.00
74242;BME280;62599;49.146;10.426;2023-08-31T07:37:05;95481.19;;;13.76;100.00
74242;BME280;62599;49.146;10.426;2023-08-31T07:39:31;95474.59;;;13.73;100.00
74242;BME280;62599;49.146;10.426;2023-08-31T07:41:57;95477.06;;;13.82;100.00
74242;BME280;62599;49.146;10.426;2023-08-31T07:44:23;95482.19;;;14.06;100.00
74242;BME280;62599;49.146;10.426;2023-08-31T07:46:48;95483.22;;;14.21;98.68
74242;BME280;62599;49.146;10.426;2023-08-31T07:49:14;95477.50;;;14.26;97.59
74242;BME280;62599;49.146;10.426;2023-08-31T07:51:39;95494.25;;;14.32;95.79
74242;BME280;62599;49.146;10.426;2023-08-31T07:54:05;95494.19;;;14.28;95.36
74242;BME280;62599;49.146;10.426;2023-08-31T07:56:30;95489.78;;;14.20;95.07
74242;BME280;62599;49.146;10.426;2023-08-31T07:58:55;95490.19;;;14.22;95.51
74242;BME280;62599;49.146;10.426;2023-08-31T08:01:21;95490.38;;;14.33;94.82
74242;BME280;62599;49.146;10.426;2023-08-31T08:03:46;95496.66;;;14.37;94.18
74242;BME280;62599;49.146;10.426;2023-08-31T08:06:12;95500.91;;;14.57;92.39
74242;BME280;62599;49.146;10.426;2023-08-31T08:08:37;95497.84;;;14.59;90.41
74242;BME280;62599;49.146;10.426;2023-08-31T08:11:04;95508.22;;;14.53;91.59
74242;BME280;62599;49.146;10.426;2023-08-31T08:13:29;95505.63;;;14.41;91.90
74242;BME280;62599;49.146;10.426;2023-08-31T08:15:55;95520.00;;;14.22;91.22
74242;BME280;62599;49.146;10.426;2023-08-31T08:18:20;95515.53;;;13.91;92.38
74242;BME280;62599;49.146;10.426;2023-08-31T08:20:52;95523.59;;;13.87;95.83
74242;BME280;62599;49.146;10.426;2023-08-31T08:23:17;95522.22;;;13.97;95.13
74242;BME280;62599;49.146;10.426;2023-08-31T08:25:43;95522.44;;;14.08;96.40
74242;BME280;62599;49.146;10.426;2023-08-31T08:28:08;95517.84;;;14.31;95.74
74242;BME280;62599;49.146;10.426;2023-08-31T08:30:37;95521.88;;;14.83;94.45
74242;BME280;62599;49.146;10.426;2023-08-31T08:33:05;95525.81;;;15.39;92.62
74242;BME280;62599;49.146;10.426;2023-08-31T08:35:31;95502.59;;;15.68;87.05
74242;BME280;62599;49.146;10.426;2023-08-31T08:37:56;95519.38;;;15.47;84.35
74242;BME280;62599;49.146;10.426;2023-08-31T08:40:22;95518.69;;;15.27;85.63
74242;BME280;62599;49.146;10.426;2023-08-31T08:42:47;95518.72;;;15.04;84.70
74242;BME280;62599;49.146;10.426;2023-08-31T08:45:14;95510.03;;;14.95;88.28
74242;BME280;62599;49.146;10.426;2023-08-31T08:47:43;95517.16;;;15.03;86.33
74242;BME280;62599;49.146;10.426;2023-08-31T08:50:11;95513.63;;;15.26;87.35
74242;BME280;62599;49.146;10.426;2023-08-31T08:52:38;95507.66;;;15.43;85.26
74242;BME280;62599;49.146;10.426;2023-08-31T08:55:04;95517.16;;;15.56;85.14
74242;BME280;62599;49.146;10.426;2023-08-31T08:57:31;95517.03;;;15.76;84.58
74242;BME280;62599;49.146;10.426;2023-08-31T08:59:58;95515.69;;;16.26;82.05
74242;BME280;62599;49.146;10.426;2023-08-31T09:02:23;95515.03;;;16.77;78.23
74242;BME280;62599;49.146;10.426;2023-08-31T09:04:49;95511.75;;;17.02;76.65
74242;BME280;62599;49.146;10.426;2023-08-31T09:07:20;95516.59;;;17.23;74.96
74242;BME280;62599;49.146;10.426;2023-08-31T09:09:50;95505.78;;;17.37;75.10
74242;BME280;62599;49.146;10.426;2023-08-31T09:12:16;95515.91;;;17.37;71.97
74242;BME280;62599;49.146;10.426;2023-08-31T09:14:42;95523.81;;;17.01;72.83
74242;BME280;62599;49.146;10.426;2023-08-31T09:17:08;95527.78;;;16.70;74.59
74242;BME280;62599;49.146;10.426;2023-08-31T09:19:34;95533.31;;;16.40;76.86
74242;BME280;62599;49.146;10.426;2023-08-31T09:22:00;95530.75;;;16.17;77.10
74242;BME280;62599;49.146;10.426;2023-08-31T09:24:25;95538.72;;;16.02;75.75
74242;BME280;62599;49.146;10.426;2023-08-31T09:26:56;95538.00;;;16.05;76.94
74242;BME280;62599;49.146;10.426;2023-08-31T09:29:22;95539.75;;;16.61;77.08
74242;BME280;62599;49.146;10.426;2023-08-31T09:31:47;95532.25;;;17.40;76.52
74242;BME280;62599;49.146;10.426;2023-08-31T09:34:17;95532.63;;;17.97;71.32
74242;BME280;62599;49.146;10.426;2023-08-31T09:36:44;95529.88;;;18.04;64.47
74242;BME280;62599;49.146;10.426;2023-08-31T09:39:09;95536.44;;;17.89;60.31
74242;BME280;62599;49.146;10.426;2023-08-31T09:41:59;95532.78;;;17.64;62.70
74242;BME280;62599;49.146;10.426;2023-08-31T09:44:28;95540.03;;;17.42;63.61
74242;BME280;62599;49.146;10.426;2023-08-31T09:47:01;95531.78;;;17.27;64.84
74242;BME280;62599;49.146;10.426;2023-08-31T09:49:30;95539.41;;;17.07;64.82
74242;BME280;62599;49.146;10.426;2023-08-31T09:51:56;95542.06;;;17.00;64.45
74242;BME280;62599;49.146;10.426;2023-08-31T09:54:27;95549.88;;;16.65;67.30
74242;BME280;62599;49.146;10.426;2023-08-31T09:56:56;95546.13;;;16.39;67.46
74242;BME280;62599;49.146;10.426;2023-08-31T09:59:26;95548.00;;;16.31;69.13
74242;BME280;62599;49.146;10.426;2023-08-31T10:01:52;95547.78;;;16.13;69.34
74242;BME280;62599;49.146;10.426;2023-08-31T10:04:20;95543.09;;;16.10;68.52
74242;BME280;62599;49.146;10.426;2023-08-31T10:06:46;95542.75;;;16.16;67.88
74242;BME280;62599;49.146;10.426;2023-08-31T10:09:13;95564.56;;;16.23;67.82
74242;BME280;62599;49.146;10.426;2023-08-31T10:11:39;95560.72;;;16.24;67.60
74242;BME280;62599;49.146;10.426;2023-08-31T10:14:11;95554.69;;;16.41;67.28
74242;BME280;62599;49.146;10.426;2023-08-31T10:16:41;95561.13;;;16.59;66.13
74242;BME280;62599;49.146;10.426;2023-08-31T10:19:12;95548.59;;;16.55;65.57
74242;BME280;62599;49.146;10.426;2023-08-31T10:21:44;95546.41;;;15.97;63.46
74242;BME280;62599;49.146;10.426;2023-08-31T10:24:09;95558.84;;;15.98;65.88
74242;BME280;62599;49.146;10.426;2023-08-31T10:26:35;95546.53;;;16.41;64.82
74242;BME280;62599;49.146;10.426;2023-08-31T10:29:01;95547.53;;;17.00;64.30
74242;BME280;62599;49.146;10.426;2023-08-31T10:31:29;95546.91;;;17.21;61.79
74242;BME280;62599;49.146;10.426;2023-08-31T10:33:59;95556.63;;;17.22;61.32
74242;BME280;62599;49.146;10.426;2023-08-31T10:36:47;95549.81;;;16.98;61.78
74242;BME280;62599;49.146;10.426;2023-08-31T10:39:16;95540.75;;;16.83;63.16
74242;BME280;62599;49.146;10.426;2023-08-31T10:41:52;95545.94;;;16.96;61.83
74242;BME280;62599;49.146;10.426;2023-08-31T10:44:22;95552.16;;;16.96;61.09
74242;BME280;62599;49.146;10.426;2023-08-31T10:46:48;95542.47;;;17.02;61.87
74242;BME280;62599;49.146;10.426;2023-08-31T10:49:23;95541.69;;;17.02;62.10
74242;BME280;62599;49.146;10.426;2023-08-31T10:52:13;95558.47;;;17.07;62.82
74242;BME280;62599;49.146;10.426;2023-08-31T10:54:43;95553.78;;;17.04;63.61
74242;BME280;62599;49.146;10.426;2023-08-31T10:57:12;95551.59;;;17.28;64.52
74242;BME280;62599;49.146;10.426;2023-08-31T11:07:38;95539.88;;;17.17;62.06
74242;BME280;62599;49.146;10.426;2023-08-31T11:10:38;95542.59;;;17.17;61.85
74242;BME280;62599;49.146;10.426;2023-08-31T11:13:28;95547.50;;;17.52;62.22
74242;BME280;62599;49.146;10.426;2023-08-31T11:18:40;95563.19;;;17.69;58.86
74242;BME280;62599;49.146;10.426;2023-08-31T11:21:06;95557.31;;;17.64;58.52
74242;BME280;62599;49.146;10.426;2023-08-31T11:23:35;95557.56;;;18.07;59.54
74242;BME280;62599;49.146;10.426;2023-08-31T11:26:17;95555.41;;;18.66;56.45
74242;BME280;62599;49.146;10.426;2023-08-31T11:28:48;95556.22;;;18.63;53.47
74242;BME280;62599;49.146;10.426;2023-08-31T11:31:43;95548.03;;;18.63;53.52
74242;BME280;62599;49.146;10.426;2023-08-31T11:34:16;95537.41;;;18.36;55.57
74242;BME280;62599;49.146;10.426;2023-08-31T11:36:48;95564.94;;;18.02;56.65
74242;BME280;62599;49.146;10.426;2023-08-31T11:39:19;95560.41;;;17.59;60.06
74242;BME280;62599;49.146;10.426;2023-08-31T11:41:45;95555.69;;;17.52;60.46
74242;BME280;62599;49.146;10.426;2023-08-31T11:44:15;95554.19;;;17.62;60.72
74242;BME280;62599;49.146;10.426;2023-08-31T11:46:44;95555.75;;;17.63;61.26
74242;BME280;62599;49.146;10.426;2023-08-31T11:49:14;95562.69;;;17.53;61.14
74242;BME280;62599;49.146;10.426;2023-08-31T11:51:39;95557.63;;;17.51;61.27
74242;BME280;62599;49.146;10.426;2023-08-31T11:54:10;95554.97;;;17.62;61.79
74242;BME280;62599;49.146;10.426;2023-08-31T11:56:41;95563.09;;;17.55;61.09
74242;BME280;62599;49.146;10.426;2023-08-31T11:59:11;95565.78;;;17.48;62.54
74242;BME280;62599;49.146;10.426;2023-08-31T12:01:40;95558.38;;;17.48;62.99
74242;BME280;62599;49.146;10.426;2023-08-31T12:04:19;95559.78;;;17.83;62.32
74242;BME280;62599;49.146;10.426;2023-08-31T12:06:52;95550.03;;;17.82;59.58
74242;BME280;62599;49.146;10.426;2023-08-31T12:09:21;95554.41;;;17.97;60.50
74242;BME280;62599;49.146;10.426;2023-08-31T12:11:56;95565.38;;;18.19;59.55
74242;BME280;62599;49.146;10.426;2023-08-31T12:14:26;95553.38;;;18.27;56.38
74242;BME280;62599;49.146;10.426;2023-08-31T12:17:03;95548.34;;;18.43;57.30
74242;BME280;62599;49.146;10.426;2023-08-31T12:19:33;95546.28;;;18.15;55.21
74242;BME280;62599;49.146;10.426;2023-08-31T12:24:43;95557.31;;;17.67;58.18
74242;BME280;62599;49.146;10.426;2023-08-31T12:27:12;95559.50;;;17.40;58.50
74242;BME280;62599;49.146;10.426;2023-08-31T12:29:39;95559.84;;;17.35;61.20
74242;BME280;62599;49.146;10.426;2023-08-31T12:32:05;95559.53;;;17.47;60.60
74242;BME280;62599;49.146;10.426;2023-08-31T12:34:40;95563.50;;;17.61;61.35
74242;BME280;62599;49.146;10.426;2023-08-31T12:37:12;95570.00;;;18.00;61.09
74242;BME280;62599;49.146;10.426;2023-08-31T12:39:41;95559.16;;;18.18;60.53
74242;BME280;62599;49.146;10.426;2023-08-31T12:42:39;95556.16;;;18.41;58.90
74242;BME280;62599;49.146;10.426;2023-08-31T12:48:10;95549.03;;;18.22;57.21
74242;BME280;62599;49.146;10.426;2023-08-31T12:50:41;95558.50;;;17.70;57.47
74242;BME280;62599;49.146;10.426;2023-08-31T12:53:10;95572.75;;;17.45;58.83
74242;BME280;62599;49.146;10.426;2023-08-31T12:55:35;95558.34;;;17.45;60.24
74242;BME280;62599;49.146;10.426;2023-08-31T12:58:01;95553.34;;;17.50;57.36
74242;BME280;62599;49.146;10.426;2023-08-31T13:00:32;95547.91;;;17.54;58.91
74242;BME280;62599;49.146;10.426;2023-08-31T13:02:59;95549.88;;;17.61;59.48
74242;BME280;62599;49.146;10.426;2023-08-31T13:05:26;95570.53;;;17.62;58.49
74242;BME280;62599;49.146;10.426;2023-08-31T13:07:54;95556.47;;;17.52;58.82
74242;BME280;62599;49.146;10.426;2023-08-31T13:10:20;95555.03;;;17.73;59.36
74242;BME280;62599;49.146;10.426;2023-08-31T13:12:45;95543.03;;;17.81;58.54
74242;BME280;62599;49.146;10.426;2023-08-31T13:15:16;95557.91;;;17.94;57.91
74242;BME280;62599;49.146;10.426;2023-08-31T13:17:41;95550.91;;;18.04;58.23